createdAt,value
2023-11-18T00:01:58.762Z,1.84
2023-11-18T00:04:44.855Z,1.84
2023-11-18T00:07:30.793Z,1.90
2023-11-18T00:10:16.448Z,1.97
2023-11-18T00:13:03.499Z,2.06
2023-11-18T00:15:49.475Z,2.10
2023-11-18T00:18:35.541Z,2.12
2023-11-18T00:21:20.901Z,2.13
2023-11-18T00:24:07.016Z,2.14
2023-11-18T00:26:52.557Z,2.16
2023-11-18T00:29:38.897Z,2.18
2023-11-18T00:32:24.936Z,2.20
2023-11-18T00:35:11.579Z,2.21
2023-11-18T00:37:57.643Z,2.21
2023-11-18T00:40:43.291Z,2.21
2023-11-18T00:43:28.835Z,2.19
2023-11-18T00:46:14.311Z,2.18
2023-11-18T00:48:59.730Z,2.16
2023-11-18T00:51:45.084Z,2.15
2023-11-18T00:54:31.538Z,2.13
2023-11-18T00:57:18.213Z,2.12
2023-11-18T01:00:04.014Z,2.13
2023-11-18T01:02:51.089Z,2.13
2023-11-18T01:05:36.893Z,2.13
2023-11-18T01:08:22.393Z,2.08
2023-11-18T01:11:08.204Z,2.04
2023-11-18T01:13:57.129Z,2.00
2023-11-18T01:16:42.887Z,1.97
2023-11-18T01:19:29.552Z,1.91
2023-11-18T01:22:15.287Z,1.86
2023-11-18T01:25:02.155Z,1.81
2023-11-18T01:27:48.159Z,1.74
2023-11-18T01:30:33.934Z,1.66
2023-11-18T01:33:19.727Z,1.62
2023-11-18T01:36:06.025Z,1.57
2023-11-18T01:38:52.229Z,1.52
2023-11-18T01:41:37.801Z,1.46
2023-11-18T01:44:25.342Z,1.41
2023-11-18T01:47:15.108Z,1.37
2023-11-18T01:50:01.497Z,1.31
2023-11-18T01:52:48.802Z,1.25
2023-11-18T01:55:35.600Z,1.20
2023-11-18T01:58:24.215Z,1.15
2023-11-18T02:01:11.038Z,1.10
2023-11-18T02:03:56.922Z,1.06
2023-11-18T02:06:43.737Z,1.03
2023-11-18T02:09:30.248Z,0.98
2023-11-18T02:12:32.058Z,0.93
2023-11-18T02:15:19.115Z,0.88
2023-11-18T02:18:12.544Z,0.85
2023-11-18T02:20:59.257Z,0.84
2023-11-18T02:23:45.408Z,0.82
2023-11-18T02:26:31.323Z,0.82
2023-11-18T02:29:17.175Z,0.79
2023-11-18T02:32:28.569Z,0.82
2023-11-18T02:35:29.101Z,0.84
2023-11-18T02:38:15.961Z,0.87
2023-11-18T02:41:10.049Z,0.88
2023-11-18T02:43:56.477Z,0.88
2023-11-18T02:46:44.863Z,0.88
2023-11-18T02:49:31.148Z,0.88
2023-11-18T02:52:16.836Z,0.87
2023-11-18T02:55:02.357Z,0.88
2023-11-18T02:57:48.066Z,0.89
2023-11-18T03:00:33.936Z,0.92
2023-11-18T03:03:21.519Z,0.94
2023-11-18T03:06:07.316Z,0.98
2023-11-18T03:08:53.975Z,1.01
2023-11-18T03:11:39.664Z,1.03
2023-11-18T03:14:25.109Z,1.07
2023-11-18T03:17:11.042Z,1.10
2023-11-18T03:19:56.775Z,1.11
2023-11-18T03:22:42.430Z,1.13
2023-11-18T03:25:28.000Z,1.12
2023-11-18T03:28:13.437Z,1.11
2023-11-18T03:30:59.001Z,1.14
2023-11-18T03:33:44.362Z,1.16
2023-11-18T03:36:29.890Z,1.18
2023-11-18T03:39:15.408Z,1.20
2023-11-18T03:42:01.192Z,1.23
2023-11-18T03:44:49.512Z,1.23
2023-11-18T03:47:35.383Z,1.24
2023-11-18T03:50:21.177Z,1.28
2023-11-18T03:53:07.521Z,1.31
2023-11-18T03:55:53.143Z,1.34
2023-11-18T03:58:38.861Z,1.37
2023-11-18T04:01:28.074Z,1.40
2023-11-18T04:04:13.330Z,1.44
2023-11-18T04:06:58.767Z,1.44
2023-11-18T04:09:45.074Z,1.44
2023-11-18T04:12:31.696Z,1.43
2023-11-18T04:15:17.245Z,1.39
2023-11-18T04:18:02.922Z,1.38
2023-11-18T04:20:51.579Z,1.35
2023-11-18T04:23:43.032Z,1.31
2023-11-18T04:26:28.627Z,1.29
2023-11-18T04:29:14.156Z,1.26
2023-11-18T04:32:01.183Z,1.26
2023-11-18T04:34:46.976Z,1.24
2023-11-18T04:37:32.758Z,1.24
2023-11-18T04:40:18.584Z,1.24
2023-11-18T04:43:04.184Z,1.22
2023-11-18T04:45:49.617Z,1.21
2023-11-18T04:48:39.704Z,1.21
2023-11-18T04:51:27.216Z,1.20
2023-11-18T04:54:12.587Z,1.21
2023-11-18T04:56:59.143Z,1.21
2023-11-18T04:59:47.784Z,1.21
2023-11-18T05:02:34.869Z,1.23
2023-11-18T05:05:20.234Z,1.23
2023-11-18T05:08:07.936Z,1.23
2023-11-18T05:10:53.470Z,1.23
2023-11-18T05:13:41.271Z,1.21
2023-11-18T05:16:26.560Z,1.17
2023-11-18T05:19:12.125Z,1.14
2023-11-18T05:21:57.639Z,1.07
2023-11-18T05:24:45.270Z,1.01
2023-11-18T05:27:32.438Z,0.95
2023-11-18T05:30:19.176Z,0.91
2023-11-18T05:33:06.859Z,0.88
2023-11-18T05:35:52.686Z,0.85
2023-11-18T05:38:38.584Z,0.83
2023-11-18T05:41:31.492Z,0.80
2023-11-18T05:44:20.935Z,0.77
2023-11-18T05:47:12.761Z,0.72
2023-11-18T05:49:58.428Z,0.68
2023-11-18T05:52:43.879Z,0.62
2023-11-18T05:55:29.794Z,0.59
2023-11-18T05:58:15.268Z,0.57
2023-11-18T06:01:01.120Z,0.59
2023-11-18T06:03:47.130Z,0.59
2023-11-18T06:06:33.262Z,0.58
2023-11-18T06:09:26.673Z,0.59
2023-11-18T06:12:12.320Z,0.59
2023-11-18T06:14:58.639Z,0.57
2023-11-18T06:17:45.849Z,0.57
2023-11-18T06:20:31.528Z,0.58
2023-11-18T06:23:19.734Z,0.59
2023-11-18T06:26:05.621Z,0.60
2023-11-18T06:28:51.529Z,0.61
2023-11-18T06:31:36.918Z,0.62
2023-11-18T06:34:22.274Z,0.63
2023-11-18T06:37:08.434Z,0.64
2023-11-18T06:39:54.116Z,0.64
2023-11-18T06:42:40.507Z,0.63
2023-11-18T06:45:25.895Z,0.64
2023-11-18T06:48:12.131Z,0.64
2023-11-18T06:50:57.829Z,0.64
2023-11-18T06:53:45.487Z,0.63
2023-11-18T06:56:31.509Z,0.61
2023-11-18T06:59:17.574Z,0.59
2023-11-18T07:02:05.477Z,0.50
2023-11-18T07:04:51.771Z,0.47
2023-11-18T07:07:38.768Z,0.44
2023-11-18T07:10:24.580Z,0.42
2023-11-18T07:13:11.959Z,0.40
2023-11-18T07:15:58.653Z,0.37
2023-11-18T07:18:44.624Z,0.34
2023-11-18T07:21:30.620Z,0.29
2023-11-18T07:24:18.295Z,0.29
2023-11-18T07:27:04.361Z,0.28
2023-11-18T07:29:50.053Z,0.31
2023-11-18T07:32:35.521Z,0.32
2023-11-18T07:35:21.010Z,0.36
2023-11-18T07:38:08.403Z,0.39
2023-11-18T07:40:57.805Z,0.42
2023-11-18T07:43:45.620Z,0.47
2023-11-18T07:46:32.830Z,0.54
2023-11-18T07:49:18.752Z,0.64
2023-11-18T07:52:04.568Z,0.74
2023-11-18T07:54:53.014Z,0.81
2023-11-18T07:57:38.982Z,0.87
2023-11-18T08:00:25.137Z,0.94
2023-11-18T08:03:15.244Z,1.04
2023-11-18T08:06:00.924Z,1.14
2023-11-18T08:08:46.927Z,1.23
2023-11-18T08:11:32.373Z,1.34
2023-11-18T08:14:18.404Z,1.45
2023-11-18T08:17:05.704Z,1.55
2023-11-18T08:19:51.250Z,1.68
2023-11-18T08:22:36.905Z,1.81
2023-11-18T08:25:23.084Z,1.92
2023-11-18T08:28:09.548Z,2.03
2023-11-18T08:30:55.823Z,2.14
2023-11-18T08:33:41.112Z,2.21
2023-11-18T08:36:28.640Z,2.28
2023-11-18T08:39:17.678Z,2.34
2023-11-18T08:42:03.644Z,2.40
2023-11-18T08:44:49.354Z,2.49
2023-11-18T08:47:35.118Z,2.57
2023-11-18T08:50:24.930Z,2.67
2023-11-18T08:53:11.654Z,2.80
2023-11-18T08:55:57.657Z,2.91
2023-11-18T08:58:46.508Z,3.01
2023-11-18T09:01:32.893Z,3.11
2023-11-18T09:04:21.249Z,3.21
2023-11-18T09:07:08.184Z,3.33
2023-11-18T09:09:54.086Z,3.42
2023-11-18T09:12:42.547Z,3.52
2023-11-18T09:15:29.813Z,3.61
2023-11-18T09:18:15.486Z,3.70
2023-11-18T09:21:02.591Z,3.79
2023-11-18T09:23:51.292Z,3.90
2023-11-18T09:26:36.964Z,3.99
2023-11-18T09:29:25.296Z,4.07
2023-11-18T09:32:14.090Z,4.14
2023-11-18T09:35:00.087Z,4.21
2023-11-18T09:37:46.030Z,4.25
2023-11-18T09:40:35.281Z,4.32
2023-11-18T09:43:23.170Z,4.38
2023-11-18T09:46:15.486Z,4.46
2023-11-18T09:49:27.059Z,4.53
2023-11-18T09:52:19.212Z,4.58
2023-11-18T09:55:16.313Z,4.61
2023-11-18T09:58:10.122Z,4.64
2023-11-18T10:01:00.167Z,4.65
2023-11-18T10:03:47.227Z,4.66
2023-11-18T10:06:35.811Z,4.68
2023-11-18T10:09:29.752Z,4.73
2023-11-18T10:12:17.951Z,4.76
2023-11-18T10:15:04.971Z,4.84
2023-11-18T10:18:07.845Z,4.91
2023-11-18T10:20:54.998Z,4.98
2023-11-18T10:23:59.469Z,5.03
2023-11-18T10:26:49.055Z,5.04
2023-11-18T10:29:35.086Z,5.06
2023-11-18T10:32:22.382Z,5.07
2023-11-18T10:35:11.326Z,5.10
2023-11-18T10:37:56.948Z,5.10
2023-11-18T10:40:42.833Z,5.11
2023-11-18T10:43:31.239Z,5.15
2023-11-18T10:46:18.116Z,5.20
2023-11-18T10:49:04.075Z,5.25
2023-11-18T10:51:53.012Z,5.30
2023-11-18T10:54:38.695Z,5.36
2023-11-18T10:57:25.810Z,5.40
2023-11-18T11:00:15.909Z,5.44
2023-11-18T11:03:05.559Z,5.48
2023-11-18T11:05:51.785Z,5.51
2023-11-18T11:11:26.900Z,5.54
2023-11-18T11:14:15.597Z,5.57
2023-11-18T11:17:12.326Z,5.61
2023-11-18T11:20:33.157Z,5.64
2023-11-18T11:23:21.244Z,5.70
2023-11-18T11:26:23.396Z,5.74
2023-11-18T11:29:24.927Z,5.82
2023-11-18T11:32:25.417Z,5.85
2023-11-18T11:35:22.429Z,5.91
2023-11-18T11:38:11.252Z,6.05
2023-11-18T11:41:01.554Z,6.13
2023-11-18T11:43:51.842Z,6.15
2023-11-18T11:46:38.511Z,6.20
2023-11-18T11:49:28.914Z,6.26
2023-11-18T11:52:31.178Z,6.29
2023-11-18T11:55:37.678Z,6.30
2023-11-18T11:58:32.367Z,6.33
2023-11-18T12:01:36.586Z,6.36
2023-11-18T12:04:29.451Z,6.36
2023-11-18T14:14:42.977Z,7.04
2023-11-18T14:17:29.532Z,6.83
2023-11-18T14:20:15.189Z,6.65
2023-11-18T14:23:00.984Z,6.50
2023-11-18T14:25:49.102Z,6.36
2023-11-18T14:28:36.164Z,6.21
2023-11-18T14:31:23.616Z,6.08
2023-11-18T14:34:11.234Z,5.94
2023-11-18T14:36:57.508Z,5.85
2023-11-18T14:39:43.887Z,5.75
2023-11-18T14:42:29.390Z,5.65
2023-11-18T14:45:16.287Z,5.54
2023-11-18T14:48:02.254Z,5.44
2023-11-18T14:50:47.934Z,5.35
2023-11-18T14:53:35.192Z,5.28
2023-11-18T14:56:20.835Z,5.21
2023-11-18T14:59:07.151Z,5.13
2023-11-18T15:01:58.284Z,5.03
2023-11-18T15:04:44.421Z,4.93
2023-11-18T15:07:29.798Z,4.82
2023-11-18T15:10:22.631Z,4.75
2023-11-18T15:13:19.216Z,4.66
2023-11-18T15:16:05.282Z,4.59
2023-11-18T15:18:53.716Z,4.47
2023-11-18T15:21:39.545Z,4.40
2023-11-18T15:24:25.349Z,4.32
2023-11-18T15:27:12.641Z,4.23
2023-11-18T15:29:58.755Z,4.12
2023-11-18T15:32:46.736Z,3.97
2023-11-18T15:35:32.248Z,3.81
2023-11-18T15:38:23.817Z,3.65
2023-11-18T15:41:12.537Z,3.53
2023-11-18T15:43:58.187Z,3.41
2023-11-18T15:46:49.055Z,3.29
2023-11-18T15:49:34.684Z,3.17
2023-11-18T15:52:20.113Z,2.98
2023-11-18T15:55:11.069Z,2.80
2023-11-18T15:57:56.742Z,2.60
2023-11-18T16:00:42.471Z,2.50
2023-11-18T16:03:28.838Z,2.43
2023-11-18T16:06:14.952Z,2.34
2023-11-18T16:09:00.778Z,2.23
2023-11-18T16:11:46.356Z,2.16
2023-11-18T16:14:31.921Z,2.08
2023-11-18T16:17:17.978Z,2.01
2023-11-18T16:20:08.150Z,1.93
2023-11-18T16:22:56.152Z,1.79
2023-11-18T16:25:42.043Z,1.69
2023-11-18T16:28:28.511Z,1.62
2023-11-18T16:31:14.695Z,1.56
2023-11-18T16:34:00.215Z,1.47
2023-11-18T16:36:46.153Z,1.34
2023-11-18T16:39:32.577Z,1.20
2023-11-18T16:42:20.139Z,1.14
2023-11-18T16:45:05.780Z,1.10
2023-11-18T16:47:52.300Z,1.03
2023-11-18T16:50:38.195Z,0.93
2023-11-18T16:53:23.649Z,0.83
2023-11-18T16:56:09.939Z,0.79
2023-11-18T16:58:55.618Z,0.77
2023-11-18T17:01:41.099Z,0.71
2023-11-18T17:04:26.629Z,0.68
2023-11-18T17:07:15.042Z,0.68
2023-11-18T17:10:00.566Z,0.64
2023-11-18T17:12:47.278Z,0.64
2023-11-18T17:15:32.879Z,0.66
2023-11-18T17:18:18.662Z,0.61
2023-11-18T17:21:04.871Z,0.60
2023-11-18T17:23:51.706Z,0.60
2023-11-18T17:26:40.168Z,0.61
2023-11-18T17:29:27.088Z,0.63
2023-11-18T17:32:12.383Z,0.65
2023-11-18T17:34:58.292Z,0.66
2023-11-18T17:37:45.265Z,0.66
2023-11-18T17:40:30.828Z,0.68
2023-11-18T17:43:16.170Z,0.70
2023-11-18T17:46:01.726Z,0.73
2023-11-18T17:48:47.049Z,0.77
2023-11-18T17:51:34.193Z,0.80
2023-11-18T17:54:20.013Z,0.83
2023-11-18T17:57:05.959Z,0.83
2023-11-18T17:59:54.637Z,0.84
2023-11-18T18:02:42.020Z,0.86
2023-11-18T18:05:27.601Z,0.89
2023-11-18T18:08:15.590Z,0.91
2023-11-18T18:11:01.244Z,0.92
2023-11-18T18:13:46.854Z,0.93
2023-11-18T18:16:32.522Z,0.95
2023-11-18T18:19:19.304Z,1.00
2023-11-18T18:22:05.141Z,1.02
2023-11-18T18:24:51.253Z,1.06
2023-11-18T18:27:37.128Z,1.09
2023-11-18T18:30:22.951Z,1.11
2023-11-18T18:33:10.020Z,1.14
2023-11-18T18:35:55.405Z,1.20
2023-11-18T18:38:41.285Z,1.23
2023-11-18T18:41:26.935Z,1.24
2023-11-18T18:44:12.356Z,1.28
2023-11-18T18:46:59.035Z,1.32
2023-11-18T18:49:44.334Z,1.33
2023-11-18T18:52:29.841Z,1.36
2023-11-18T18:55:15.912Z,1.38
2023-11-18T18:58:01.277Z,1.41
2023-11-18T19:00:46.669Z,1.43
2023-11-18T19:03:33.251Z,1.43
2023-11-18T20:07:34.596Z,2.40
2023-11-18T20:10:20.668Z,2.33
2023-11-18T20:13:06.925Z,2.31
2023-11-18T20:15:55.089Z,2.30
2023-11-18T20:18:40.711Z,2.25
2023-11-18T20:21:26.313Z,2.22
2023-11-18T20:24:11.983Z,2.20
2023-11-18T20:26:57.402Z,2.19
2023-11-18T20:29:43.171Z,2.19
2023-11-18T20:32:29.683Z,2.20
2023-11-18T20:35:15.345Z,2.20
2023-11-18T20:38:03.085Z,2.21
2023-11-18T20:40:49.266Z,2.20
2023-11-18T20:43:34.935Z,2.22
2023-11-18T20:46:20.531Z,2.22
2023-11-18T20:49:06.625Z,2.21
2023-11-18T20:51:54.254Z,2.23
2023-11-18T20:54:40.159Z,2.23
2023-11-18T20:57:25.564Z,2.23
2023-11-18T21:00:12.658Z,2.21
2023-11-18T21:02:58.574Z,2.24
2023-11-18T21:05:44.619Z,2.25
2023-11-18T21:08:30.616Z,2.27
2023-11-18T21:11:15.918Z,2.29
2023-11-18T21:14:01.687Z,2.30
2023-11-18T21:16:47.485Z,2.31
2023-11-18T21:19:33.260Z,2.31
2023-11-18T21:22:19.234Z,2.33
2023-11-18T21:25:06.327Z,2.33
2023-11-18T21:27:52.821Z,2.34
2023-11-18T21:30:38.331Z,2.38
2023-11-18T21:33:24.169Z,2.37
2023-11-18T21:36:10.130Z,2.38
2023-11-18T21:38:56.161Z,2.40
2023-11-18T21:41:41.970Z,2.40
2023-11-18T21:44:27.832Z,2.40
2023-11-18T21:47:13.694Z,2.39
2023-11-18T21:50:02.897Z,2.40
2023-11-18T21:52:48.646Z,2.40
2023-11-18T21:55:34.518Z,2.39
2023-11-18T21:58:20.111Z,2.39
2023-11-18T22:01:06.994Z,2.38
2023-11-18T22:03:53.845Z,2.38
2023-11-18T22:06:39.326Z,2.35
2023-11-18T22:09:25.246Z,2.35
2023-11-18T22:12:10.775Z,2.35
2023-11-18T22:14:56.167Z,2.36
2023-11-18T22:17:44.415Z,2.37
2023-11-18T22:20:31.299Z,2.34
2023-11-18T22:23:17.496Z,2.33
2023-11-18T22:26:03.098Z,2.34
2023-11-18T22:28:48.764Z,2.32
2023-11-18T22:31:34.553Z,2.29
2023-11-18T22:34:20.341Z,2.28
2023-11-18T22:37:07.214Z,2.28
2023-11-18T22:39:55.472Z,2.28
2023-11-18T22:42:44.153Z,2.29
2023-11-18T22:45:29.749Z,2.26
2023-11-18T22:48:15.331Z,2.24
2023-11-18T22:51:00.741Z,2.22
2023-11-18T22:53:46.384Z,2.22
2023-11-18T22:56:32.304Z,2.22
2023-11-18T22:59:20.977Z,2.23
2023-11-18T23:02:06.972Z,2.24
2023-11-18T23:04:52.442Z,2.24
2023-11-18T23:07:37.983Z,2.25
2023-11-18T23:10:27.195Z,2.25
2023-11-18T23:13:14.585Z,2.26
2023-11-18T23:16:02.032Z,2.24
2023-11-18T23:18:47.873Z,2.22
2023-11-18T23:21:34.565Z,2.23
2023-11-18T23:24:21.606Z,2.23
2023-11-18T23:27:08.349Z,2.23
2023-11-18T23:29:53.731Z,2.27
2023-11-18T23:32:41.128Z,2.27
2023-11-18T23:35:26.690Z,2.27
2023-11-18T23:38:12.548Z,2.25
2023-11-18T23:40:58.050Z,2.25
2023-11-18T23:43:43.693Z,2.25
2023-11-18T23:46:30.218Z,2.25
2023-11-18T23:49:16.242Z,2.25
2023-11-18T23:52:02.172Z,2.24
2023-11-18T23:54:49.204Z,2.25
2023-11-18T23:57:35.975Z,2.28
